Time;durP1;ratioP1;P1;durP2;ratioP2;P2;SDS_P1;SDS_P2;PMS_P1;PMS_P2;Temp;Humidity;BMP_temperature;BMP_pressure;BME280_temperature;BME280_humidity;BME280_pressure;Samples;Min_cycle;Max_cycle;Signal;HPM_P1;HPM_P2
2023/12/17 00:01:31;;;;;;;27.23;25.33;;;;;;;;;;4996735;28;20432;-81
2023/12/17 00:03:58;;;;;;;40.50;36.43;;;;;;;;;;4997113;28;20918;-81
2023/12/17 00:06:26;;;;;;;33.00;29.73;;;;;;;;;;4996986;28;20444;-80
2023/12/17 00:08:53;;;;;;;39.97;36.17;;;;;;;;;;4996992;28;20449;-81
2023/12/17 00:11:20;;;;;;;39.40;35.60;;;;;;;;;;4996476;28;20855;-81
2023/12/17 00:13:47;;;;;;;44.17;38.40;;;;;;;;;;4996785;28;20464;-81
2023/12/17 00:16:14;;;;;;;41.63;37.37;;;;;;;;;;4996872;28;20440;-81
2023/12/17 00:18:41;;;;;;;31.43;28.87;;;;;;;;;;4996773;28;20510;-82
2023/12/17 00:21:08;;;;;;;35.10;32.00;;;;;;;;;;4995855;28;20408;-80
2023/12/17 00:23:37;;;;;;;40.90;36.80;;;;;;;;;;4996698;28;20445;-82
2023/12/17 00:26:05;;;;;;;42.67;38.27;;;;;;;;;;4995492;28;21076;-82
2023/12/17 00:28:32;;;;;;;40.87;36.87;;;;;;;;;;5001700;28;20462;-80
2023/12/17 00:30:59;;;;;;;37.67;33.80;;;;;;;;;;4999433;28;20466;-81
2023/12/17 00:33:26;;;;;;;41.03;36.90;;;;;;;;;;5009258;28;20488;-82
2023/12/17 00:35:54;;;;;;;40.00;35.90;;;;;;;;;;4996082;28;20474;-81
2023/12/17 00:38:21;;;;;;;43.00;38.40;;;;;;;;;;4996502;28;20463;-81
2023/12/17 00:40:49;;;;;;;42.13;36.50;;;;;;;;;;4996197;28;20469;-82
2023/12/17 00:43:16;;;;;;;42.73;38.10;;;;;;;;;;4996915;28;20508;-81
2023/12/17 00:45:44;;;;;;;34.57;31.17;;;;;;;;;;4997002;28;20453;-83
2023/12/17 00:48:10;;;;;;;41.50;37.87;;;;;;;;;;4996582;28;20446;-81
2023/12/17 00:50:37;;;;;;;37.33;33.60;;;;;;;;;;5000318;28;20483;-82
2023/12/17 00:53:05;;;;;;;38.97;35.80;;;;;;;;;;5000806;28;20442;-82
2023/12/17 00:55:32;;;;;;;41.07;37.07;;;;;;;;;;5000587;28;20432;-81
2023/12/17 00:58:00;;;;;;;35.97;32.83;;;;;;;;;;5000676;28;20518;-82
2023/12/17 01:00:27;;;;;;;40.03;36.53;;;;;;;;;;5000060;28;20433;-83
2023/12/17 01:02:54;;;;;;;37.87;34.37;;;;;;;;;;5000253;28;20458;-82
2023/12/17 01:05:21;;;;;;;33.10;30.20;;;;;;;;;;5001198;28;20487;-81
2023/12/17 01:07:48;;;;;;;31.10;28.77;;;;;;;;;;5000245;28;21032;-82
2023/12/17 01:10:15;;;;;;;39.50;36.10;;;;;;;;;;5001045;28;20461;-83
2023/12/17 01:12:42;;;;;;;30.80;28.83;;;;;;;;;;5000338;28;20502;-81
2023/12/17 01:15:12;;;;;;;39.20;36.00;;;;;;;;;;5000341;28;20507;-82
2023/12/17 01:17:39;;;;;;;39.07;35.13;;;;;;;;;;5000656;28;20473;-81
2023/12/17 01:20:08;;;;;;;41.03;37.40;;;;;;;;;;4999199;28;20493;-83
2023/12/17 01:22:35;;;;;;;33.70;31.00;;;;;;;;;;4999853;28;20996;-81
2023/12/17 01:25:02;;;;;;;37.90;34.73;;;;;;;;;;5000211;28;20511;-83
2023/12/17 01:27:29;;;;;;;39.80;36.57;;;;;;;;;;5000142;28;20469;-83
2023/12/17 01:29:56;;;;;;;37.47;34.13;;;;;;;;;;5000114;28;20477;-81
2023/12/17 01:32:24;;;;;;;38.50;35.10;;;;;;;;;;4999219;28;20453;-81
2023/12/17 01:34:51;;;;;;;38.17;34.43;;;;;;;;;;5000361;28;20458;-81
2023/12/17 01:37:18;;;;;;;37.30;34.10;;;;;;;;;;5000810;28;20465;-82
2023/12/17 01:39:45;;;;;;;41.37;37.33;;;;;;;;;;4999874;28;20504;-81
2023/12/17 01:42:12;;;;;;;43.00;39.10;;;;;;;;;;4999468;28;21000;-84
2023/12/17 01:44:40;;;;;;;40.97;37.37;;;;;;;;;;5000331;28;20812;-81
2023/12/17 01:47:07;;;;;;;39.63;35.73;;;;;;;;;;4999968;28;20547;-81
2023/12/17 01:49:36;;;;;;;35.50;32.60;;;;;;;;;;4999788;28;20450;-81
2023/12/17 01:52:03;;;;;;;36.57;33.63;;;;;;;;;;4998928;28;20437;-81
2023/12/17 01:54:30;;;;;;;34.23;31.40;;;;;;;;;;4999888;28;20449;-81
2023/12/17 01:56:57;;;;;;;42.50;38.60;;;;;;;;;;4999525;28;20461;-83
2023/12/17 01:59:25;;;;;;;38.17;35.00;;;;;;;;;;4999548;28;20485;-81
2023/12/17 02:01:53;;;;;;;41.63;37.57;;;;;;;;;;4998146;28;20853;-81
2023/12/17 02:04:21;;;;;;;40.30;36.37;;;;;;;;;;4999198;28;20508;-83
2023/12/17 02:06:50;;;;;;;41.93;38.03;;;;;;;;;;4999425;28;20488;-82
2023/12/17 02:09:17;;;;;;;40.27;36.67;;;;;;;;;;4999363;28;20449;-83
2023/12/17 02:11:44;;;;;;;36.70;33.60;;;;;;;;;;4998658;28;20517;-82
2023/12/17 02:14:11;;;;;;;40.50;36.70;;;;;;;;;;5018732;28;20431;-82
2023/12/17 02:16:38;;;;;;;41.07;36.77;;;;;;;;;;5018879;28;20473;-82
2023/12/17 02:19:05;;;;;;;41.00;36.73;;;;;;;;;;5018462;28;20488;-81
2023/12/17 02:21:32;;;;;;;35.83;32.73;;;;;;;;;;5018726;28;20783;-82
2023/12/17 02:24:00;;;;;;;39.47;35.73;;;;;;;;;;5019039;28;20456;-81
2023/12/17 02:26:27;;;;;;;33.00;30.47;;;;;;;;;;5019033;28;21030;-82
2023/12/17 02:28:54;;;;;;;31.77;29.40;;;;;;;;;;5018567;28;20923;-82
2023/12/17 02:31:21;;;;;;;33.60;31.10;;;;;;;;;;5001578;28;20796;-82
2023/12/17 02:33:48;;;;;;;36.73;33.57;;;;;;;;;;4999701;28;20614;-84
2023/12/17 02:36:15;;;;;;;32.60;30.10;;;;;;;;;;4999570;28;20496;-82
2023/12/17 02:38:42;;;;;;;33.63;31.13;;;;;;;;;;4999641;28;20527;-82
2023/12/17 02:41:10;;;;;;;36.10;32.80;;;;;;;;;;4999694;28;20457;-82
2023/12/17 02:43:37;;;;;;;39.30;35.83;;;;;;;;;;5000766;28;20458;-82
2023/12/17 02:46:04;;;;;;;38.53;35.43;;;;;;;;;;4999663;28;21044;-82
2023/12/17 02:48:33;;;;;;;40.90;36.90;;;;;;;;;;4999709;28;20461;-81
2023/12/17 02:50:59;;;;;;;32.13;29.73;;;;;;;;;;4999716;28;20476;-81
2023/12/17 02:53:26;;;;;;;42.53;38.80;;;;;;;;;;4999244;28;20465;-82
2023/12/17 02:55:53;;;;;;;38.63;35.60;;;;;;;;;;4999507;28;20442;-80
2023/12/17 02:58:22;;;;;;;33.73;31.50;;;;;;;;;;4999730;28;20449;-81
2023/12/17 03:00:49;;;;;;;41.23;38.07;;;;;;;;;;4999621;28;20551;-82
2023/12/17 03:03:16;;;;;;;37.13;34.33;;;;;;;;;;4999305;28;20515;-81
2023/12/17 03:05:43;;;;;;;39.67;36.50;;;;;;;;;;4999530;28;20417;-82
2023/12/17 03:08:10;;;;;;;40.93;37.73;;;;;;;;;;5000125;28;20511;-83
2023/12/17 03:10:42;;;;;;;33.50;30.90;;;;;;;;;;4998997;28;20480;-81
2023/12/17 03:13:09;;;;;;;42.83;39.10;;;;;;;;;;4999154;28;20503;-82
2023/12/17 03:15:38;;;;;;;43.40;40.03;;;;;;;;;;4999151;28;20512;-83
2023/12/17 03:18:05;;;;;;;42.20;38.63;;;;;;;;;;4999199;28;22208;-81
2023/12/17 03:20:32;;;;;;;42.57;39.17;;;;;;;;;;4998553;28;20493;-82
2023/12/17 03:22:59;;;;;;;43.63;39.97;;;;;;;;;;4998053;28;20831;-83
2023/12/17 03:25:27;;;;;;;37.90;34.80;;;;;;;;;;4998183;28;21273;-81
2023/12/17 03:27:54;;;;;;;42.73;39.50;;;;;;;;;;4997759;28;20512;-82
2023/12/17 03:30:21;;;;;;;42.90;39.50;;;;;;;;;;4998126;28;20453;-84
2023/12/17 03:32:49;;;;;;;38.37;35.43;;;;;;;;;;4997138;28;20465;-81
2023/12/17 03:35:16;;;;;;;35.57;33.30;;;;;;;;;;4997811;28;20450;-82
2023/12/17 03:37:43;;;;;;;39.47;36.20;;;;;;;;;;4997573;28;20462;-83
2023/12/17 03:40:11;;;;;;;45.73;42.00;;;;;;;;;;4997573;28;20497;-81
2023/12/17 03:42:38;;;;;;;46.63;42.73;;;;;;;;;;4996418;28;20820;-81
2023/12/17 03:45:05;;;;;;;41.10;38.10;;;;;;;;;;4997676;28;20486;-81
2023/12/17 03:47:32;;;;;;;39.20;36.47;;;;;;;;;;4997636;28;20465;-82
2023/12/17 03:49:59;;;;;;;41.87;38.50;;;;;;;;;;4997362;28;20484;-82
2023/12/17 03:52:26;;;;;;;40.30;37.47;;;;;;;;;;4996447;28;20457;-82
2023/12/17 03:54:53;;;;;;;43.73;40.30;;;;;;;;;;4997435;28;20442;-81
2023/12/17 03:57:20;;;;;;;43.90;40.40;;;;;;;;;;4997457;28;20477;-83
2023/12/17 03:59:47;;;;;;;41.63;38.17;;;;;;;;;;4997523;28;21011;-82
2023/12/17 04:02:14;;;;;;;45.70;42.00;;;;;;;;;;4996469;28;20854;-82
2023/12/17 04:04:41;;;;;;;41.30;37.73;;;;;;;;;;4997572;28;20511;-81
2023/12/17 04:07:10;;;;;;;42.90;39.37;;;;;;;;;;4997283;28;20474;-82
2023/12/17 04:09:37;;;;;;;41.87;38.60;;;;;;;;;;4997318;28;20453;-82
2023/12/17 04:12:04;;;;;;;42.50;39.10;;;;;;;;;;4996633;28;20458;-81
2023/12/17 04:14:33;;;;;;;43.27;39.57;;;;;;;;;;4996859;28;20501;-81
2023/12/17 04:17:00;;;;;;;43.50;39.40;;;;;;;;;;4996536;28;20809;-82
2023/12/17 04:19:27;;;;;;;39.47;36.53;;;;;;;;;;4996720;28;20484;-81
2023/12/17 04:21:54;;;;;;;41.60;38.03;;;;;;;;;;4996335;28;20787;-83
2023/12/17 04:24:22;;;;;;;43.40;39.60;;;;;;;;;;4996334;28;20516;-82
2023/12/17 04:26:49;;;;;;;45.63;41.90;;;;;;;;;;4996683;28;20523;-81
2023/12/17 04:29:16;;;;;;;45.37;41.50;;;;;;;;;;4996930;28;20503;-82
2023/12/17 04:31:43;;;;;;;37.70;34.90;;;;;;;;;;5000912;28;20456;-83
2023/12/17 04:34:11;;;;;;;42.10;39.00;;;;;;;;;;5016910;28;20899;-81
2023/12/17 04:36:38;;;;;;;38.20;35.43;;;;;;;;;;5003561;28;20477;-81
2023/12/17 04:39:05;;;;;;;40.10;37.10;;;;;;;;;;4996464;28;20511;-80
2023/12/17 04:41:34;;;;;;;42.17;38.77;;;;;;;;;;4996721;28;20449;-81
2023/12/17 04:44:01;;;;;;;33.43;31.17;;;;;;;;;;4996545;28;20444;-82
2023/12/17 04:46:28;;;;;;;34.00;31.40;;;;;;;;;;4996121;28;20957;-82
2023/12/17 04:48:55;;;;;;;38.20;34.33;;;;;;;;;;4997181;28;20450;-81
2023/12/17 04:51:23;;;;;;;37.43;34.50;;;;;;;;;;4996275;28;20453;-80
2023/12/17 04:53:50;;;;;;;39.17;36.07;;;;;;;;;;4996774;28;20453;-81
2023/12/17 04:56:17;;;;;;;38.90;35.47;;;;;;;;;;4996155;28;20447;-81
2023/12/17 04:58:45;;;;;;;37.80;34.30;;;;;;;;;;4996850;28;20412;-83
2023/12/17 05:01:12;;;;;;;35.90;33.33;;;;;;;;;;4996164;28;20517;-82
2023/12/17 05:03:39;;;;;;;38.97;35.83;;;;;;;;;;4996390;28;20445;-83
2023/12/17 05:06:06;;;;;;;40.07;36.67;;;;;;;;;;4996111;28;20500;-82
2023/12/17 05:08:33;;;;;;;37.17;34.17;;;;;;;;;;4996879;28;20453;-81
2023/12/17 05:11:00;;;;;;;36.33;33.30;;;;;;;;;;4996249;28;20469;-81
2023/12/17 05:13:27;;;;;;;39.17;35.77;;;;;;;;;;4996571;28;20481;-81
2023/12/17 05:15:56;;;;;;;41.13;37.63;;;;;;;;;;4997200;28;20507;-81
2023/12/17 05:18:23;;;;;;;38.07;35.00;;;;;;;;;;4996608;28;20461;-81
2023/12/17 05:20:50;;;;;;;39.30;36.10;;;;;;;;;;4995925;28;20469;-82
2023/12/17 05:23:17;;;;;;;40.63;37.07;;;;;;;;;;4996768;28;20484;-82
2023/12/17 05:25:44;;;;;;;39.43;36.13;;;;;;;;;;4995901;28;20873;-81
2023/12/17 05:28:11;;;;;;;34.87;32.10;;;;;;;;;;4996475;28;20454;-83
2023/12/17 05:30:39;;;;;;;39.97;36.73;;;;;;;;;;4995969;28;20454;-83
2023/12/17 05:33:07;;;;;;;38.87;35.37;;;;;;;;;;4996207;28;20457;-81
2023/12/17 05:35:34;;;;;;;37.37;34.63;;;;;;;;;;4998093;28;20420;-83
2023/12/17 05:38:01;;;;;;;35.63;32.80;;;;;;;;;;4999851;28;20961;-82
2023/12/17 05:40:28;;;;;;;40.20;36.80;;;;;;;;;;4998535;28;20497;-82
2023/12/17 05:42:55;;;;;;;44.47;40.90;;;;;;;;;;5000071;28;20432;-81
2023/12/17 05:45:22;;;;;;;35.73;32.87;;;;;;;;;;4999777;28;20408;-83
2023/12/17 05:47:49;;;;;;;38.00;34.87;;;;;;;;;;4999700;28;20465;-82
2023/12/17 05:50:17;;;;;;;36.60;33.60;;;;;;;;;;4999724;28;20496;-81
2023/12/17 05:52:44;;;;;;;38.87;35.57;;;;;;;;;;4999266;28;20496;-81
2023/12/17 05:55:11;;;;;;;38.23;34.83;;;;;;;;;;4999758;28;20472;-81
2023/12/17 05:57:38;;;;;;;33.93;31.30;;;;;;;;;;4999377;28;21063;-82
2023/12/17 06:00:05;;;;;;;35.83;32.73;;;;;;;;;;4999694;28;21229;-82
2023/12/17 06:02:32;;;;;;;36.40;33.67;;;;;;;;;;5008103;28;20816;-82
2023/12/17 06:04:59;;;;;;;37.00;34.00;;;;;;;;;;4999654;28;20449;-81
2023/12/17 06:07:28;;;;;;;34.00;31.60;;;;;;;;;;4999067;28;20537;-81
2023/12/17 06:09:56;;;;;;;39.60;35.90;;;;;;;;;;5019513;28;20446;-81
2023/12/17 06:12:22;;;;;;;37.20;34.07;;;;;;;;;;5002306;28;20483;-81
2023/12/17 06:14:49;;;;;;;39.57;36.20;;;;;;;;;;4999058;28;20450;-81
2023/12/17 06:17:16;;;;;;;35.53;32.43;;;;;;;;;;4999547;28;20532;-83
2023/12/17 06:19:44;;;;;;;39.07;35.50;;;;;;;;;;4998824;28;20508;-83
2023/12/17 06:22:15;;;;;;;35.70;32.90;;;;;;;;;;4998196;28;20559;-83
2023/12/17 06:24:44;;;;;;;32.10;29.90;;;;;;;;;;4998874;28;20899;-82
2023/12/17 06:27:15;;;;;;;38.53;35.07;;;;;;;;;;4999501;28;20466;-83
2023/12/17 06:29:42;;;;;;;44.10;40.07;;;;;;;;;;4999666;28;20411;-81
2023/12/17 06:32:09;;;;;;;45.80;41.50;;;;;;;;;;4998196;28;20457;-81
2023/12/17 06:34:36;;;;;;;42.43;38.67;;;;;;;;;;4999151;28;20429;-81
2023/12/17 06:37:03;;;;;;;34.83;31.90;;;;;;;;;;4998973;28;20519;-89
2023/12/17 06:39:30;;;;;;;36.90;33.83;;;;;;;;;;4999340;28;20214;-82
2023/12/17 06:41:58;;;;;;;32.90;30.20;;;;;;;;;;4999051;28;20479;-83
2023/12/17 06:44:25;;;;;;;36.13;33.07;;;;;;;;;;4998647;28;20501;-82
2023/12/17 06:46:52;;;;;;;31.10;28.83;;;;;;;;;;4997880;28;20461;-81
2023/12/17 06:49:19;;;;;;;37.70;34.40;;;;;;;;;;4999038;28;20420;-84
2023/12/17 06:51:46;;;;;;;30.53;27.93;;;;;;;;;;4997580;28;20930;-83
2023/12/17 06:54:13;;;;;;;35.77;32.77;;;;;;;;;;4998288;28;20795;-83
2023/12/17 06:56:42;;;;;;;28.87;26.60;;;;;;;;;;4998952;28;20465;-81
2023/12/17 06:59:10;;;;;;;32.43;29.33;;;;;;;;;;4999079;28;20500;-82
2023/12/17 07:01:37;;;;;;;31.37;28.73;;;;;;;;;;5013157;28;20519;-83
2023/12/17 07:04:04;;;;;;;33.03;30.20;;;;;;;;;;5018134;28;20456;-82
2023/12/17 07:06:31;;;;;;;29.00;26.70;;;;;;;;;;5017640;28;20435;-81
2023/12/17 07:08:58;;;;;;;35.57;32.20;;;;;;;;;;5017378;28;20464;-82
2023/12/17 07:11:25;;;;;;;29.40;27.03;;;;;;;;;;5017369;28;20499;-81
2023/12/17 07:13:52;;;;;;;35.50;32.33;;;;;;;;;;5017804;28;20502;-81
2023/12/17 07:16:24;;;;;;;33.90;31.10;;;;;;;;;;5017288;28;20479;-82
2023/12/17 07:18:51;;;;;;;34.53;31.37;;;;;;;;;;4997828;28;20457;-81
2023/12/17 07:21:18;;;;;;;30.30;27.70;;;;;;;;;;4997546;28;20489;-81
2023/12/17 07:23:45;;;;;;;33.30;30.43;;;;;;;;;;4997930;28;20492;-81
2023/12/17 07:26:12;;;;;;;33.57;30.80;;;;;;;;;;4998053;28;20496;-80
2023/12/17 07:28:39;;;;;;;35.37;31.90;;;;;;;;;;4998292;28;20465;-83
2023/12/17 07:31:06;;;;;;;34.83;31.23;;;;;;;;;;4997560;28;20504;-83
2023/12/17 07:33:35;;;;;;;32.60;29.57;;;;;;;;;;4997529;28;20449;-81
2023/12/17 07:36:02;;;;;;;34.17;31.00;;;;;;;;;;4997314;28;20473;-81
2023/12/17 07:38:29;;;;;;;33.47;30.20;;;;;;;;;;4997544;28;20819;-81
2023/12/17 07:40:56;;;;;;;30.67;28.27;;;;;;;;;;4996978;28;20485;-82
2023/12/17 07:43:23;;;;;;;30.77;27.23;;;;;;;;;;4997845;28;20453;-81
2023/12/17 07:45:50;;;;;;;31.80;28.90;;;;;;;;;;4997274;28;20441;-81
2023/12/17 07:48:17;;;;;;;33.50;30.40;;;;;;;;;;4998001;28;20535;-81
2023/12/17 07:50:45;;;;;;;35.87;32.07;;;;;;;;;;4996842;28;20457;-81
2023/12/17 07:53:13;;;;;;;31.63;28.83;;;;;;;;;;4997298;28;20853;-82
2023/12/17 07:55:40;;;;;;;31.13;28.13;;;;;;;;;;4997286;28;20940;-82
2023/12/17 07:58:07;;;;;;;32.03;28.60;;;;;;;;;;4995945;28;21059;-82
2023/12/17 08:00:35;;;;;;;30.87;28.10;;;;;;;;;;4996267;28;20487;-84
2023/12/17 08:03:01;;;;;;;31.80;29.23;;;;;;;;;;4997217;28;20462;-83
2023/12/17 08:05:28;;;;;;;27.50;25.13;;;;;;;;;;4997451;28;20445;-82
2023/12/17 08:07:57;;;;;;;30.87;28.17;;;;;;;;;;4996705;28;20973;-82
2023/12/17 08:10:24;;;;;;;31.70;28.90;;;;;;;;;;4997126;28;20922;-83
2023/12/17 08:12:51;;;;;;;25.00;22.80;;;;;;;;;;4997259;28;20434;-82
2023/12/17 08:15:18;;;;;;;27.73;25.33;;;;;;;;;;4997347;28;20929;-83
2023/12/17 08:17:45;;;;;;;22.80;21.07;;;;;;;;;;4997077;28;20481;-82
2023/12/17 08:20:12;;;;;;;24.60;22.47;;;;;;;;;;4997275;28;20445;-84
2023/12/17 08:22:39;;;;;;;28.47;25.93;;;;;;;;;;4996723;28;20519;-81
2023/12/17 08:25:08;;;;;;;26.90;24.70;;;;;;;;;;4997346;28;20453;-83
2023/12/17 08:27:35;;;;;;;25.67;23.60;;;;;;;;;;4996627;28;20539;-82
2023/12/17 08:30:02;;;;;;;21.77;20.27;;;;;;;;;;4997543;28;20477;-84
2023/12/17 08:32:31;;;;;;;22.97;20.97;;;;;;;;;;4999026;28;20481;-88
2023/12/17 08:34:59;;;;;;;24.77;22.67;;;;;;;;;;5001186;28;20453;-82
2023/12/17 08:37:26;;;;;;;25.73;23.60;;;;;;;;;;5013193;28;20486;-78
2023/12/17 08:39:53;;;;;;;26.97;24.70;;;;;;;;;;5012177;28;20444;-78
2023/12/17 08:42:21;;;;;;;24.27;22.37;;;;;;;;;;5013579;28;20490;-79
2023/12/17 08:44:48;;;;;;;25.47;23.37;;;;;;;;;;5014200;28;20457;-84
2023/12/17 08:47:15;;;;;;;21.87;20.20;;;;;;;;;;4999063;28;20580;-82
2023/12/17 08:49:42;;;;;;;23.20;21.50;;;;;;;;;;4997759;28;20416;-83
2023/12/17 08:52:09;;;;;;;21.37;19.93;;;;;;;;;;4995823;28;20416;-78
2023/12/17 08:54:36;;;;;;;22.43;20.83;;;;;;;;;;4993531;28;20507;-81
2023/12/17 08:57:04;;;;;;;25.03;23.13;;;;;;;;;;4996190;28;20875;-78
2023/12/17 08:59:32;;;;;;;23.80;21.90;;;;;;;;;;4993110;28;20508;-76
2023/12/17 09:01:59;;;;;;;23.43;21.70;;;;;;;;;;4991846;28;20488;-77
2023/12/17 09:04:26;;;;;;;24.93;23.10;;;;;;;;;;4992926;28;20520;-79
2023/12/17 09:06:53;;;;;;;20.40;19.07;;;;;;;;;;4992648;28;20555;-79
2023/12/17 09:09:20;;;;;;;25.20;23.30;;;;;;;;;;4992543;28;20481;-80
2023/12/17 09:11:47;;;;;;;25.73;23.73;;;;;;;;;;4995196;28;20500;-80
2023/12/17 09:14:14;;;;;;;21.47;20.00;;;;;;;;;;4996743;28;20461;-80
2023/12/17 09:16:42;;;;;;;24.70;22.90;;;;;;;;;;4995379;28;20896;-80
2023/12/17 09:19:09;;;;;;;25.80;24.00;;;;;;;;;;4997383;28;21002;-78
2023/12/17 09:21:36;;;;;;;25.80;23.93;;;;;;;;;;5015606;28;20495;-79
2023/12/17 09:24:04;;;;;;;20.77;19.37;;;;;;;;;;5016032;28;20483;-78
2023/12/17 09:26:31;;;;;;;19.50;18.40;;;;;;;;;;5016182;28;20476;-79
2023/12/17 09:28:59;;;;;;;22.13;20.83;;;;;;;;;;5015899;28;20914;-78
2023/12/17 09:31:26;;;;;;;24.60;22.90;;;;;;;;;;5014816;28;20459;-78
2023/12/17 09:33:54;;;;;;;22.00;20.40;;;;;;;;;;5015946;28;20462;-78
2023/12/17 09:36:23;;;;;;;21.37;20.10;;;;;;;;;;5015680;28;20844;-79
2023/12/17 09:38:50;;;;;;;20.70;19.50;;;;;;;;;;5015098;28;20456;-79
2023/12/17 09:41:17;;;;;;;21.77;20.27;;;;;;;;;;5015263;28;20477;-77
2023/12/17 09:43:44;;;;;;;24.47;22.77;;;;;;;;;;5016822;28;20503;-79
2023/12/17 09:46:10;;;;;;;20.20;18.90;;;;;;;;;;5017515;28;20470;-80
2023/12/17 09:48:37;;;;;;;23.10;21.57;;;;;;;;;;5013752;28;20461;-77
2023/12/17 09:51:06;;;;;;;21.47;20.27;;;;;;;;;;4994731;28;20453;-79
2023/12/17 09:53:37;;;;;;;23.93;22.23;;;;;;;;;;4996973;28;20449;-79
2023/12/17 09:56:04;;;;;;;23.87;22.27;;;;;;;;;;4995401;28;20524;-78
2023/12/17 09:58:31;;;;;;;20.00;18.80;;;;;;;;;;4996545;28;21311;-80
2023/12/17 10:00:58;;;;;;;22.73;21.33;;;;;;;;;;4997028;28;20551;-79
2023/12/17 10:03:25;;;;;;;19.80;18.43;;;;;;;;;;4997189;28;20485;-79
2023/12/17 10:05:52;;;;;;;20.47;19.23;;;;;;;;;;4997147;28;20445;-80
2023/12/17 10:08:21;;;;;;;20.00;18.80;;;;;;;;;;4996937;28;20449;-78
2023/12/17 10:10:48;;;;;;;20.10;18.67;;;;;;;;;;4996244;28;20455;-79
2023/12/17 10:13:19;;;;;;;20.37;19.07;;;;;;;;;;4996677;28;20572;-81
2023/12/17 10:15:48;;;;;;;21.67;20.27;;;;;;;;;;4997033;28;20426;-78
2023/12/17 10:18:15;;;;;;;21.70;20.27;;;;;;;;;;4996723;28;20463;-80
2023/12/17 10:20:42;;;;;;;20.40;19.20;;;;;;;;;;4995535;28;20799;-80
2023/12/17 10:23:09;;;;;;;19.77;18.63;;;;;;;;;;4996034;28;20868;-79
2023/12/17 10:25:38;;;;;;;18.43;17.30;;;;;;;;;;4996082;28;20453;-80
2023/12/17 10:28:05;;;;;;;19.07;18.07;;;;;;;;;;4995799;28;20531;-79
2023/12/17 10:30:33;;;;;;;17.30;16.40;;;;;;;;;;4994101;28;20489;-78
2023/12/17 10:33:00;;;;;;;18.03;17.13;;;;;;;;;;4994178;28;20436;-79
2023/12/17 10:35:28;;;;;;;19.77;18.57;;;;;;;;;;4993563;28;20454;-78
2023/12/17 10:37:59;;;;;;;19.87;18.67;;;;;;;;;;4994085;28;20571;-77
2023/12/17 10:40:26;;;;;;;19.43;18.27;;;;;;;;;;4993737;28;20894;-78
2023/12/17 10:42:56;;;;;;;20.90;19.60;;;;;;;;;;4993456;28;20900;-78
2023/12/17 10:45:23;;;;;;;20.97;19.40;;;;;;;;;;4994063;28;20435;-78
2023/12/17 10:47:52;;;;;;;20.90;19.60;;;;;;;;;;4993730;28;20477;-77
2023/12/17 10:50:19;;;;;;;21.37;19.87;;;;;;;;;;4993625;28;21229;-78
2023/12/17 10:52:47;;;;;;;19.43;18.23;;;;;;;;;;4993294;28;20797;-78
2023/12/17 10:55:14;;;;;;;20.73;19.60;;;;;;;;;;4997628;28;20539;-79
2023/12/17 10:57:43;;;;;;;19.83;18.77;;;;;;;;;;5013361;28;20469;-78
2023/12/17 11:00:12;;;;;;;19.03;18.03;;;;;;;;;;5012947;28;21024;-78
2023/12/17 11:02:40;;;;;;;17.50;16.70;;;;;;;;;;5012611;28;20488;-78
2023/12/17 11:05:07;;;;;;;18.70;17.70;;;;;;;;;;5012991;28;20449;-79
2023/12/17 11:07:34;;;;;;;17.67;16.77;;;;;;;;;;5015510;28;20519;-80
2023/12/17 11:10:01;;;;;;;18.53;17.63;;;;;;;;;;5014850;28;20437;-79
2023/12/17 11:12:28;;;;;;;17.63;16.37;;;;;;;;;;5002462;28;20500;-79
2023/12/17 11:14:55;;;;;;;18.73;17.63;;;;;;;;;;4995079;28;21213;-80
2023/12/17 11:17:24;;;;;;;19.67;18.53;;;;;;;;;;4995153;28;20965;-79
2023/12/17 11:19:56;;;;;;;19.80;18.73;;;;;;;;;;4995567;28;20504;-79
2023/12/17 11:22:23;;;;;;;16.80;16.00;;;;;;;;;;4994323;28;20489;-79
2023/12/17 11:24:50;;;;;;;17.33;16.47;;;;;;;;;;4995384;28;20435;-78
2023/12/17 11:27:22;;;;;;;20.90;19.60;;;;;;;;;;4995080;28;20498;-78
2023/12/17 11:29:48;;;;;;;20.33;19.13;;;;;;;;;;4995585;28;20469;-79
2023/12/17 11:32:17;;;;;;;18.83;17.60;;;;;;;;;;4993956;28;20428;-80
2023/12/17 11:34:48;;;;;;;20.80;19.60;;;;;;;;;;4994582;28;20442;-79
2023/12/17 11:37:17;;;;;;;20.23;19.00;;;;;;;;;;4995062;28;20481;-79
2023/12/17 11:39:45;;;;;;;21.10;19.80;;;;;;;;;;4993874;28;20785;-83
2023/12/17 11:42:12;;;;;;;22.83;21.20;;;;;;;;;;4994127;28;20536;-79
2023/12/17 11:44:43;;;;;;;21.60;20.10;;;;;;;;;;4994814;28;20490;-79
2023/12/17 11:47:10;;;;;;;22.33;20.90;;;;;;;;;;4993927;28;20483;-77
2023/12/17 11:49:37;;;;;;;24.03;22.43;;;;;;;;;;4992814;28;20464;-79
2023/12/17 11:52:12;;;;;;;23.80;22.10;;;;;;;;;;4992083;28;20445;-78
2023/12/17 11:54:39;;;;;;;18.53;17.43;;;;;;;;;;4992890;28;20496;-79
2023/12/17 11:57:18;;;;;;;24.80;22.93;;;;;;;;;;4992300;28;20807;-78
2023/12/17 11:59:45;;;;;;;20.47;19.00;;;;;;;;;;4992956;28;20429;-78
2023/12/17 12:02:12;;;;;;;25.00;23.20;;;;;;;;;;4991862;28;20493;-78
2023/12/17 12:04:40;;;;;;;21.27;19.77;;;;;;;;;;4992511;28;20477;-79
2023/12/17 12:07:07;;;;;;;22.60;21.10;;;;;;;;;;4992259;28;20453;-79
2023/12/17 12:09:36;;;;;;;19.73;18.47;;;;;;;;;;4992563;28;20818;-79
2023/12/17 12:12:03;;;;;;;24.13;22.43;;;;;;;;;;4991504;28;20496;-79
2023/12/17 12:14:30;;;;;;;21.43;19.63;;;;;;;;;;4992304;28;20862;-78
2023/12/17 12:16:58;;;;;;;22.80;21.30;;;;;;;;;;4992061;28;20469;-78
2023/12/17 12:19:25;;;;;;;22.80;21.07;;;;;;;;;;4991930;28;20444;-79
2023/12/17 12:21:52;;;;;;;24.80;23.00;;;;;;;;;;4991739;28;20492;-79
2023/12/17 12:24:20;;;;;;;24.60;22.80;;;;;;;;;;4992209;28;20856;-77
2023/12/17 12:26:50;;;;;;;23.03;21.40;;;;;;;;;;4991975;28;20940;-79
2023/12/17 12:29:17;;;;;;;24.60;22.80;;;;;;;;;;4992250;28;20500;-78
2023/12/17 12:31:51;;;;;;;21.90;20.20;;;;;;;;;;4991521;28;20496;-77
2023/12/17 12:34:18;;;;;;;19.63;18.43;;;;;;;;;;4992840;28;20456;-78
2023/12/17 12:36:46;;;;;;;22.80;21.20;;;;;;;;;;4996204;28;20462;-83
2023/12/17 12:39:13;;;;;;;25.07;23.13;;;;;;;;;;4997114;28;20499;-80
2023/12/17 12:41:43;;;;;;;24.27;22.30;;;;;;;;;;4996000;28;20485;-79
2023/12/17 12:44:13;;;;;;;20.50;19.17;;;;;;;;;;4997537;28;20472;-79
2023/12/17 12:46:40;;;;;;;27.57;25.17;;;;;;;;;;5002417;28;20469;-79
2023/12/17 12:49:08;;;;;;;24.57;22.70;;;;;;;;;;5003135;28;20871;-79
2023/12/17 12:51:36;;;;;;;23.03;21.37;;;;;;;;;;5002388;28;20453;-79
2023/12/17 12:54:03;;;;;;;27.10;24.70;;;;;;;;;;5002799;28;20457;-79
2023/12/17 12:56:30;;;;;;;25.40;23.40;;;;;;;;;;5002829;28;20556;-79
2023/12/17 12:58:57;;;;;;;25.30;23.17;;;;;;;;;;5002787;28;20961;-79
2023/12/17 13:01:26;;;;;;;20.23;18.63;;;;;;;;;;5002078;28;20457;-80
2023/12/17 13:03:53;;;;;;;23.83;22.20;;;;;;;;;;5002803;28;20453;-79
2023/12/17 13:06:20;;;;;;;22.53;20.97;;;;;;;;;;5002563;28;20511;-79
2023/12/17 13:08:47;;;;;;;26.57;24.10;;;;;;;;;;5001740;28;20437;-79
2023/12/17 13:11:14;;;;;;;25.00;23.20;;;;;;;;;;4998435;28;20476;-79
2023/12/17 13:13:41;;;;;;;24.53;22.80;;;;;;;;;;4998804;28;20454;-78
2023/12/17 13:16:09;;;;;;;24.93;23.03;;;;;;;;;;4998560;28;20468;-79
2023/12/17 13:18:37;;;;;;;24.43;22.53;;;;;;;;;;5007127;28;20499;-80
2023/12/17 13:21:04;;;;;;;25.43;23.53;;;;;;;;;;5023894;28;20478;-79
2023/12/17 13:23:31;;;;;;;26.20;24.20;;;;;;;;;;5015222;28;20625;-79
2023/12/17 13:25:58;;;;;;;25.63;23.73;;;;;;;;;;5017006;28;20508;-79
2023/12/17 13:28:25;;;;;;;25.60;23.80;;;;;;;;;;5022910;28;20444;-79
2023/12/17 13:30:53;;;;;;;23.00;21.43;;;;;;;;;;5022686;28;20456;-79
2023/12/17 13:33:20;;;;;;;23.23;21.50;;;;;;;;;;5023728;28;20446;-79
2023/12/17 13:35:48;;;;;;;25.60;23.80;;;;;;;;;;5022855;28;20486;-79
2023/12/17 13:38:15;;;;;;;24.50;22.50;;;;;;;;;;5022885;28;20936;-79
2023/12/17 13:40:42;;;;;;;24.60;22.60;;;;;;;;;;5022901;28;20878;-79
2023/12/17 13:43:09;;;;;;;21.57;20.17;;;;;;;;;;5022443;28;20484;-80
2023/12/17 13:45:36;;;;;;;19.80;18.50;;;;;;;;;;5002552;28;20465;-79
2023/12/17 13:48:03;;;;;;;25.83;24.03;;;;;;;;;;5000129;28;20449;-79
2023/12/17 13:50:30;;;;;;;25.43;23.63;;;;;;;;;;4997911;28;20445;-79
2023/12/17 13:52:58;;;;;;;27.17;25.07;;;;;;;;;;4998333;28;20508;-78
2023/12/17 13:55:29;;;;;;;23.87;22.17;;;;;;;;;;4999992;28;20449;-80
2023/12/17 13:57:56;;;;;;;25.10;23.30;;;;;;;;;;5009770;28;20484;-80
2023/12/17 14:00:24;;;;;;;29.60;27.03;;;;;;;;;;5020631;28;20491;-81
2023/12/17 14:02:51;;;;;;;28.83;26.50;;;;;;;;;;5014180;28;20962;-79
2023/12/17 14:05:18;;;;;;;27.97;25.57;;;;;;;;;;5017803;28;20875;-80
2023/12/17 14:07:45;;;;;;;28.20;25.80;;;;;;;;;;5019338;28;20465;-80
2023/12/17 14:10:13;;;;;;;23.00;21.40;;;;;;;;;;5017318;28;20466;-79
2023/12/17 14:12:41;;;;;;;30.00;27.80;;;;;;;;;;5014765;28;20460;-79
2023/12/17 14:15:09;;;;;;;26.23;24.23;;;;;;;;;;5010896;28;20532;-80
2023/12/17 14:17:36;;;;;;;28.70;26.33;;;;;;;;;;5013766;28;20491;-79